LOT4AJ EDDH-EBBR
Flight info
| Callsign | LOT4AJ |
|---|---|
| Flight time | N/A |
| Altitude | 32000 |
| Route | WSN5G/33 WSN N125 ONTAZ DCT SUSET/N0449F310 Z310 WOODY |
| Aircraft | B38M/M-SDE1FGHILORVWXY/HB1 |
Departure
| Time | 2026-04-23 19:06 |
|---|---|
| Airport | Hamburg Helmut Schmidt Airport (EDDH) |
Arrival
| Time | N/A |
|---|---|
| Airport | Brussels Airport (EBBR) |
| Time | Latitude | Longitude | Altitude | Speed | Heading |
|---|---|---|---|---|---|
| 2026-04-23 18:36 | 53.62869 | 9.99293 | 47 ft | 0 kts | 242° |
| 2026-04-23 18:59 | 53.62871 | 9.99300 | 49 ft | 2 kts | 240° |
| 2026-04-23 18:59 | 53.62879 | 9.99323 | 47 ft | 2 kts | 236° |
| 2026-04-23 19:00 | 53.62889 | 9.99346 | 49 ft | 2 kts | 229° |
| 2026-04-23 19:00 | 53.62901 | 9.99365 | 44 ft | 2 kts | 216° |
| 2026-04-23 19:00 | 53.62915 | 9.99377 | 48 ft | 2 kts | 192° |
| 2026-04-23 19:00 | 53.62931 | 9.99378 | 47 ft | 2 kts | 165° |
| 2026-04-23 19:01 | 53.62942 | 9.99372 | 46 ft | 1 kts | 154° |
| 2026-04-23 19:01 | 53.62942 | 9.99371 | 46 ft | 0 kts | 154° |
| 2026-04-23 19:02 | 53.62938 | 9.99375 | 44 ft | 3 kts | 152° |
| 2026-04-23 19:02 | 53.62886 | 9.99422 | 49 ft | 13 kts | 152° |
| 2026-04-23 19:02 | 53.62802 | 9.99496 | 49 ft | 11 kts | 152° |
| 2026-04-23 19:03 | 53.62748 | 9.99543 | 49 ft | 3 kts | 154° |
| 2026-04-23 19:03 | 53.62719 | 9.99567 | 49 ft | 6 kts | 154° |
| 2026-04-23 19:03 | 53.62685 | 9.99595 | 49 ft | 6 kts | 154° |
| 2026-04-23 19:03 | 53.62645 | 9.99636 | 49 ft | 8 kts | 131° |
| 2026-04-23 19:04 | 53.62637 | 9.99733 | 47 ft | 10 kts | 77° |
| 2026-04-23 19:04 | 53.62683 | 9.99846 | 48 ft | 14 kts | 26° |
| 2026-04-23 19:04 | 53.62754 | 9.99842 | 44 ft | 0 kts | 328° |
| 2026-04-23 19:05 | 53.62756 | 9.99840 | 45 ft | 3 kts | 328° |
| 2026-04-23 19:05 | 53.62973 | 9.99647 | 47 ft | 78 kts | 333° |
| 2026-04-23 19:06 | 53.63691 | 9.99022 | 60 ft | 151 kts | 327° |
| 2026-04-23 19:06 | 53.64705 | 9.98146 | 725 ft | 169 kts | 329° |
| 2026-04-23 19:06 | 53.65730 | 9.97247 | 1942 ft | 168 kts | 333° |
| 2026-04-23 19:06 | 53.66854 | 9.96257 | 2527 ft | 194 kts | 334° |
| 2026-04-23 19:07 | 53.68040 | 9.95236 | 3591 ft | 194 kts | 334° |
| 2026-04-23 19:07 | 53.69273 | 9.94200 | 4523 ft | 199 kts | 335° |
| 2026-04-23 19:07 | 53.70522 | 9.93057 | 4858 ft | 211 kts | 323° |
| 2026-04-23 19:07 | 53.71343 | 9.90990 | 4793 ft | 224 kts | 290° |
| 2026-04-23 19:08 | 53.71327 | 9.88286 | 4939 ft | 241 kts | 261° |
| 2026-04-23 19:08 | 53.70765 | 9.85560 | 4988 ft | 245 kts | 257° |
| 2026-04-23 19:08 | 53.70211 | 9.82862 | 4929 ft | 245 kts | 258° |
| 2026-04-23 19:08 | 53.69639 | 9.80037 | 4966 ft | 259 kts | 257° |
| 2026-04-23 19:09 | 53.69059 | 9.77150 | 4979 ft | 265 kts | 258° |
| 2026-04-23 19:09 | 53.68470 | 9.74181 | 4995 ft | 266 kts | 258° |
| 2026-04-23 19:09 | 53.67885 | 9.71219 | 5019 ft | 266 kts | 258° |
| 2026-04-23 19:09 | 53.67301 | 9.68266 | 5019 ft | 266 kts | 258° |
| 2026-04-23 19:10 | 53.66724 | 9.65341 | 5020 ft | 266 kts | 258° |
| 2026-04-23 19:10 | 53.66137 | 9.62376 | 5027 ft | 267 kts | 258° |
| 2026-04-23 19:10 | 53.65547 | 9.59403 | 5035 ft | 267 kts | 257° |
| 2026-04-23 19:10 | 53.64685 | 9.56582 | 5026 ft | 274 kts | 240° |
| 2026-04-23 19:11 | 53.63571 | 9.54000 | 5050 ft | 275 kts | 240° |
| 2026-04-23 19:11 | 53.62440 | 9.51359 | 5299 ft | 278 kts | 240° |
| 2026-04-23 19:11 | 53.61323 | 9.48755 | 6376 ft | 277 kts | 240° |
| 2026-04-23 19:11 | 53.60175 | 9.46078 | 7307 ft | 285 kts | 239° |
| 2026-04-23 19:12 | 53.59399 | 9.44274 | 7989 ft | 286 kts | 239° |
| 2026-04-23 19:12 | 53.57819 | 9.40599 | 9295 ft | 293 kts | 239° |
| 2026-04-23 19:12 | 53.56607 | 9.37783 | 10087 ft | 301 kts | 238° |
| 2026-04-23 19:12 | 53.55377 | 9.34930 | 10257 ft | 300 kts | 238° |
| 2026-04-23 19:13 | 53.54163 | 9.32118 | 10265 ft | 299 kts | 238° |
| 2026-04-23 19:13 | 53.52929 | 9.29261 | 10276 ft | 299 kts | 238° |
| 2026-04-23 19:13 | 53.51715 | 9.26453 | 10278 ft | 299 kts | 238° |
| 2026-04-23 19:13 | 53.50483 | 9.23608 | 10279 ft | 300 kts | 238° |
| 2026-04-23 19:14 | 53.49252 | 9.20770 | 10281 ft | 300 kts | 238° |
| 2026-04-23 19:14 | 53.48017 | 9.17921 | 10638 ft | 311 kts | 238° |
| 2026-04-23 19:14 | 53.46703 | 9.14895 | 11158 ft | 330 kts | 238° |
| 2026-04-23 19:14 | 53.45315 | 9.11706 | 11703 ft | 344 kts | 237° |
| 2026-04-23 19:15 | 53.43884 | 9.08421 | 12463 ft | 350 kts | 237° |
| 2026-04-23 19:15 | 53.42434 | 9.05098 | 13318 ft | 355 kts | 237° |
| 2026-04-23 19:15 | 53.40981 | 9.01770 | 14091 ft | 360 kts | 237° |
| 2026-04-23 19:15 | 53.39490 | 8.98362 | 14819 ft | 364 kts | 237° |
| 2026-04-23 19:16 | 53.37975 | 8.94898 | 15561 ft | 367 kts | 236° |
| 2026-04-23 19:16 | 53.36468 | 8.91460 | 16272 ft | 371 kts | 236° |
| 2026-04-23 19:16 | 53.34979 | 8.87911 | 16962 ft | 372 kts | 244° |
| 2026-04-23 19:17 | 53.33058 | 8.79818 | 18295 ft | 377 kts | 251° |
| 2026-04-23 19:17 | 53.32138 | 8.75733 | 18918 ft | 380 kts | 252° |
| 2026-04-23 19:17 | 53.31203 | 8.71542 | 19455 ft | 384 kts | 252° |
| 2026-04-23 19:17 | 53.30276 | 8.67373 | 20036 ft | 387 kts | 252° |
| 2026-04-23 19:18 | 53.29354 | 8.63166 | 20623 ft | 389 kts | 251° |
| 2026-04-23 19:18 | 53.28415 | 8.58880 | 21188 ft | 392 kts | 252° |
| 2026-04-23 19:18 | 53.27471 | 8.54583 | 21756 ft | 395 kts | 252° |
| 2026-04-23 19:18 | 53.26538 | 8.50259 | 22314 ft | 397 kts | 255° |
| 2026-04-23 19:19 | 53.24883 | 8.41369 | 23420 ft | 402 kts | 255° |
| 2026-04-23 19:19 | 53.24045 | 8.36950 | 23941 ft | 405 kts | 253° |
| 2026-04-23 19:20 | 53.22324 | 8.27935 | 24787 ft | 411 kts | 254° |
| 2026-04-23 19:20 | 53.21448 | 8.23360 | 25221 ft | 414 kts | 254° |
| 2026-04-23 19:20 | 53.20564 | 8.18752 | 25630 ft | 417 kts | 252° |
| 2026-04-23 19:20 | 53.19686 | 8.14192 | 26094 ft | 418 kts | 252° |
| 2026-04-23 19:21 | 53.18801 | 8.09514 | 26488 ft | 421 kts | 253° |
| 2026-04-23 19:21 | 53.17040 | 8.00164 | 27286 ft | 426 kts | 253° |
| 2026-04-23 19:21 | 53.16153 | 7.95475 | 27662 ft | 429 kts | 252° |
| 2026-04-23 19:22 | 53.15245 | 7.90694 | 28044 ft | 431 kts | 252° |
| 2026-04-23 19:22 | 53.14641 | 7.87518 | 28297 ft | 433 kts | 252° |
| 2026-04-23 19:22 | 53.12807 | 7.77908 | 29021 ft | 439 kts | 252° |
| 2026-04-23 19:23 | 53.11872 | 7.73024 | 29392 ft | 441 kts | 252° |
| 2026-04-23 19:23 | 53.10935 | 7.68142 | 29728 ft | 444 kts | 252° |
| 2026-04-23 19:23 | 53.09989 | 7.63239 | 30096 ft | 446 kts | 251° |
| 2026-04-23 19:24 | 53.08089 | 7.53418 | 30795 ft | 449 kts | 252° |
| 2026-04-23 19:24 | 53.07127 | 7.48467 | 31095 ft | 451 kts | 251° |
| 2026-04-23 19:24 | 53.05189 | 7.38534 | 31840 ft | 450 kts | 251° |
| 2026-04-23 19:25 | 53.03255 | 7.28664 | 32371 ft | 450 kts | 251° |
| 2026-04-23 19:25 | 53.00908 | 7.19187 | 32339 ft | 443 kts | 234° |
| 2026-04-23 19:26 | 52.95705 | 7.06419 | 32374 ft | 444 kts | 234° |
| 2026-04-23 19:27 | 52.86992 | 6.85372 | 32362 ft | 443 kts | 234° |